createdAt,value
2018-09-22T00:01:32.623Z,12.58
2018-09-22T00:04:00.847Z,12.71
2018-09-22T00:06:29.024Z,12.80
2018-09-22T00:08:57.235Z,12.76
2018-09-22T00:11:25.473Z,12.63
2018-09-22T00:13:53.750Z,12.73
2018-09-22T00:16:21.904Z,12.78
2018-09-22T00:18:50.155Z,12.68
2018-09-22T00:21:18.362Z,12.70
2018-09-22T00:23:46.644Z,12.78
2018-09-22T00:26:14.843Z,12.61
2018-09-22T00:28:44.111Z,12.63
2018-09-22T00:31:12.394Z,12.56
2018-09-22T00:33:40.722Z,12.65
2018-09-22T00:36:08.960Z,12.66
2018-09-22T00:38:38.087Z,12.64
2018-09-22T00:41:06.656Z,12.66
2018-09-22T00:43:35.330Z,12.57
2018-09-22T00:46:03.696Z,12.64
2018-09-22T00:48:31.970Z,12.71
2018-09-22T00:51:00.145Z,12.50
2018-09-22T00:53:28.359Z,12.47
2018-09-22T00:55:56.682Z,12.29
2018-09-22T00:58:24.919Z,12.38
2018-09-22T01:00:53.172Z,12.47
2018-09-22T01:03:21.390Z,12.42
2018-09-22T01:05:49.568Z,12.33
2018-09-22T01:08:17.790Z,12.22
2018-09-22T01:10:45.930Z,12.27
2018-09-22T01:13:14.039Z,12.14
2018-09-22T01:15:42.290Z,12.47
2018-09-22T01:18:10.563Z,12.58
2018-09-22T01:20:38.694Z,12.51
2018-09-22T01:23:06.987Z,12.55
2018-09-22T01:25:35.131Z,12.70
2018-09-22T01:28:03.283Z,12.67
2018-09-22T01:30:31.506Z,12.53
2018-09-22T01:32:59.679Z,12.44
2018-09-22T01:35:27.886Z,12.42
2018-09-22T01:37:56.077Z,12.43
2018-09-22T01:40:24.267Z,12.30
2018-09-22T01:42:52.478Z,12.42
2018-09-22T01:45:20.812Z,12.43
2018-09-22T01:47:49.038Z,12.45
2018-09-22T01:50:24.071Z,12.61
2018-09-22T01:52:52.295Z,12.65
2018-09-22T01:55:20.532Z,12.77
2018-09-22T01:57:48.743Z,12.52
2018-09-22T02:00:17.116Z,12.55
2018-09-22T02:02:45.304Z,12.47
2018-09-22T02:05:13.498Z,12.29
2018-09-22T02:07:41.771Z,12.28
2018-09-22T02:10:09.918Z,12.14
2018-09-22T02:12:38.075Z,12.01
2018-09-22T02:15:06.274Z,12.03
2018-09-22T02:17:34.511Z,12.01
2018-09-22T02:20:02.868Z,12.25
2018-09-22T02:22:31.342Z,12.24
2018-09-22T02:24:59.475Z,12.20
2018-09-22T02:27:27.604Z,12.19
2018-09-22T02:29:55.771Z,12.06
2018-09-22T02:32:23.967Z,12.08
2018-09-22T02:34:52.252Z,12.04
2018-09-22T02:37:20.943Z,11.97
2018-09-22T02:39:49.132Z,12.02
2018-09-22T02:42:17.905Z,11.87
2018-09-22T02:44:46.088Z,11.63
2018-09-22T02:47:14.235Z,11.52
2018-09-22T02:49:42.371Z,11.50
2018-09-22T02:52:10.553Z,11.56
2018-09-22T02:54:38.727Z,11.52
2018-09-22T02:57:06.863Z,11.57
2018-09-22T02:59:35.059Z,11.61
2018-09-22T03:02:03.295Z,11.71
2018-09-22T03:04:31.490Z,11.74
2018-09-22T03:06:59.716Z,11.90
2018-09-22T03:09:27.829Z,11.66
2018-09-22T03:11:55.964Z,11.74
2018-09-22T03:14:24.246Z,11.83
2018-09-22T03:16:52.381Z,11.81
2018-09-22T03:19:20.596Z,11.84
2018-09-22T03:21:49.144Z,12.03
2018-09-22T03:24:17.305Z,11.97
2018-09-22T03:26:45.535Z,11.84
2018-09-22T03:29:13.724Z,11.81
2018-09-22T03:31:41.814Z,11.79
2018-09-22T03:34:10.043Z,11.78
2018-09-22T03:36:38.227Z,11.83
2018-09-22T03:39:08.332Z,11.78
2018-09-22T03:41:36.487Z,11.70
2018-09-22T03:44:04.715Z,11.45
2018-09-22T03:46:32.947Z,11.60
2018-09-22T03:49:01.175Z,11.70
2018-09-22T03:51:29.569Z,11.63
2018-09-22T03:53:57.727Z,11.51
2018-09-22T03:56:25.923Z,11.63
2018-09-22T03:58:54.213Z,11.45
2018-09-22T04:01:22.387Z,11.49
2018-09-22T04:03:50.479Z,11.35
2018-09-22T04:06:18.671Z,11.35
2018-09-22T04:08:46.800Z,11.43
2018-09-22T04:11:15.049Z,11.50
2018-09-22T04:13:43.223Z,11.48
2018-09-22T04:16:11.548Z,11.27
2018-09-22T04:18:39.770Z,11.09
2018-09-22T04:21:08.028Z,11.22
2018-09-22T04:23:36.254Z,11.37
2018-09-22T04:26:04.509Z,11.13
2018-09-22T04:28:32.712Z,11.03
2018-09-22T04:31:00.786Z,11.15
2018-09-22T04:33:29.086Z,11.23
2018-09-22T04:35:57.124Z,11.29
2018-09-22T04:38:25.336Z,11.40
2018-09-22T04:40:53.573Z,11.39
2018-09-22T04:43:21.988Z,11.38
2018-09-22T04:45:50.143Z,11.41
2018-09-22T04:48:18.358Z,11.49
2018-09-22T04:50:46.819Z,11.35
2018-09-22T04:53:14.993Z,11.29
2018-09-22T04:55:43.171Z,11.49
2018-09-22T04:58:11.481Z,11.47
2018-09-22T05:00:39.956Z,11.46
2018-09-22T05:03:08.155Z,11.47
2018-09-22T05:05:36.319Z,11.46
2018-09-22T05:08:04.526Z,11.40
2018-09-22T05:10:32.698Z,11.33
2018-09-22T05:13:00.996Z,11.10
2018-09-22T05:15:29.245Z,11.12
2018-09-22T05:17:57.500Z,11.22
2018-09-22T05:20:25.615Z,11.18
2018-09-22T05:22:53.848Z,11.09
2018-09-22T05:25:22.067Z,11.04
2018-09-22T05:27:50.243Z,10.93
2018-09-22T05:30:18.458Z,11.01
2018-09-22T05:32:46.650Z,10.86
2018-09-22T05:35:14.767Z,10.97
2018-09-22T05:37:42.991Z,11.33
2018-09-22T05:40:11.228Z,11.31
2018-09-22T05:42:39.344Z,11.61
2018-09-22T05:45:07.734Z,11.45
2018-09-22T05:47:36.428Z,11.62
2018-09-22T05:50:04.747Z,11.66
2018-09-22T05:52:32.953Z,11.90
2018-09-22T05:55:01.879Z,11.83
2018-09-22T05:57:30.183Z,11.87
2018-09-22T05:59:58.393Z,11.71
2018-09-22T06:02:28.951Z,11.92
2018-09-22T06:04:57.394Z,11.70
2018-09-22T06:07:25.548Z,11.71
2018-09-22T06:09:54.240Z,11.87
2018-09-22T06:12:22.415Z,12.03
2018-09-22T06:14:50.612Z,11.95
2018-09-22T06:17:18.760Z,11.72
2018-09-22T06:19:46.985Z,11.88
2018-09-22T06:22:15.121Z,11.91
2018-09-22T06:24:43.330Z,12.19
2018-09-22T06:27:11.561Z,12.21
2018-09-22T06:29:39.755Z,12.45
2018-09-22T06:32:07.936Z,12.44
2018-09-22T06:34:36.246Z,12.29
2018-09-22T06:37:04.433Z,12.27
2018-09-22T06:39:32.683Z,12.27
2018-09-22T06:42:00.980Z,12.35
2018-09-22T06:44:29.189Z,12.39
2018-09-22T06:46:57.323Z,12.65
2018-09-22T06:49:25.461Z,12.88
2018-09-22T06:51:53.683Z,12.92
2018-09-22T06:54:21.851Z,13.01
2018-09-22T06:56:50.172Z,12.97
2018-09-22T06:59:18.308Z,12.97
2018-09-22T07:01:46.435Z,13.09
2018-09-22T07:04:14.611Z,13.33
2018-09-22T07:06:42.850Z,13.50
2018-09-22T07:09:11.024Z,13.83
2018-09-22T07:11:39.211Z,13.99
2018-09-22T07:14:07.552Z,14.14
2018-09-22T07:16:35.735Z,14.22
2018-09-22T07:19:03.973Z,14.32
2018-09-22T07:21:37.472Z,14.41
2018-09-22T07:24:05.693Z,14.42
2018-09-22T07:26:33.867Z,14.30
2018-09-22T07:29:01.948Z,14.52
2018-09-22T07:31:32.903Z,14.66
2018-09-22T07:34:01.177Z,14.68
2018-09-22T07:36:29.459Z,14.79
2018-09-22T07:38:58.947Z,14.42
2018-09-22T07:41:27.139Z,14.63
2018-09-22T07:43:55.383Z,14.56
2018-09-22T07:46:23.695Z,14.72
2018-09-22T07:48:51.851Z,14.60
2018-09-22T07:51:19.955Z,14.58
2018-09-22T07:53:48.156Z,14.77
2018-09-22T07:56:16.379Z,14.68
2018-09-22T07:58:44.608Z,14.77
2018-09-22T08:01:12.687Z,14.86
2018-09-22T08:03:40.852Z,14.96
2018-09-22T08:06:09.483Z,14.94
2018-09-22T08:08:37.725Z,14.76
2018-09-22T08:11:05.880Z,14.69
2018-09-22T08:13:33.998Z,14.61
2018-09-22T08:16:02.184Z,14.86
2018-09-22T08:18:30.334Z,15.15
2018-09-22T08:20:58.516Z,15.20
2018-09-22T08:23:26.615Z,15.28
2018-09-22T08:25:54.940Z,15.28
2018-09-22T08:28:23.419Z,15.18
2018-09-22T08:30:51.576Z,15.36
2018-09-22T08:33:19.791Z,15.64
2018-09-22T08:35:48.005Z,15.83
2018-09-22T08:38:16.298Z,15.69
2018-09-22T08:40:44.491Z,15.64
2018-09-22T08:43:12.664Z,15.70
2018-09-22T08:45:40.863Z,15.81
2018-09-22T08:48:09.036Z,15.87
2018-09-22T08:50:37.208Z,15.88
2018-09-22T08:53:05.440Z,16.06
2018-09-22T08:55:33.647Z,16.00
2018-09-22T08:58:01.917Z,16.10
2018-09-22T09:00:30.087Z,16.27
2018-09-22T09:02:58.265Z,16.37
2018-09-22T09:05:26.385Z,16.23
2018-09-22T09:07:54.619Z,16.38
2018-09-22T09:10:22.878Z,16.34
2018-09-22T09:12:51.277Z,16.59
2018-09-22T09:15:19.503Z,16.77
2018-09-22T09:17:47.651Z,16.59
2018-09-22T09:20:15.827Z,16.51
2018-09-22T09:22:43.960Z,16.44
2018-09-22T09:25:12.223Z,16.54
2018-09-22T09:27:40.507Z,16.52
2018-09-22T09:30:08.641Z,16.56
2018-09-22T09:32:36.788Z,16.62
2018-09-22T09:35:04.940Z,16.48
2018-09-22T09:37:33.731Z,16.68
2018-09-22T09:40:01.887Z,16.55
2018-09-22T09:42:30.268Z,16.68
2018-09-22T09:44:58.490Z,16.58
2018-09-22T09:47:26.622Z,16.71
2018-09-22T09:49:54.843Z,17.05
2018-09-22T09:52:23.086Z,16.95
2018-09-22T09:54:51.368Z,17.04
2018-09-22T09:57:19.499Z,17.04
2018-09-22T09:59:47.747Z,17.02
2018-09-22T10:02:16.064Z,17.20
2018-09-22T10:04:44.323Z,17.35
2018-09-22T10:07:12.524Z,17.57
2018-09-22T10:09:40.793Z,17.51
2018-09-22T10:12:09.091Z,17.48
2018-09-22T10:14:37.381Z,17.37
2018-09-22T10:17:05.710Z,17.35
2018-09-22T10:19:33.999Z,17.40
2018-09-22T10:22:02.215Z,17.43
2018-09-22T10:24:30.443Z,17.42
2018-09-22T10:26:58.614Z,17.18
2018-09-22T10:29:26.811Z,17.07
2018-09-22T10:31:54.931Z,17.22
2018-09-22T10:34:23.184Z,17.22
2018-09-22T10:36:51.577Z,17.36
2018-09-22T10:39:19.879Z,17.06
2018-09-22T10:41:48.212Z,17.22
2018-09-22T10:44:16.675Z,17.21
2018-09-22T10:46:44.891Z,17.29
2018-09-22T10:49:13.126Z,17.43
2018-09-22T10:51:41.543Z,17.39
2018-09-22T10:54:10.208Z,17.52
2018-09-22T10:56:38.475Z,17.62
2018-09-22T10:59:07.631Z,17.77
2018-09-22T11:01:35.984Z,18.15
2018-09-22T11:04:04.335Z,18.10
2018-09-22T11:06:32.520Z,18.04
2018-09-22T11:09:00.707Z,17.81
2018-09-22T11:11:28.819Z,17.64
2018-09-22T11:13:56.960Z,17.68
2018-09-22T11:16:25.188Z,17.85
2018-09-22T11:18:53.438Z,17.95
2018-09-22T11:21:21.634Z,18.02
2018-09-22T11:23:49.838Z,17.79
2018-09-22T11:26:18.128Z,18.07
2018-09-22T11:28:46.255Z,18.14
2018-09-22T11:31:14.572Z,18.24
2018-09-22T11:33:42.820Z,18.31
2018-09-22T11:36:11.119Z,18.39
2018-09-22T11:38:40.214Z,18.22
2018-09-22T11:41:08.416Z,18.25
2018-09-22T11:43:36.671Z,18.34
2018-09-22T11:46:04.915Z,18.21
2018-09-22T11:48:33.013Z,17.92
2018-09-22T11:51:01.291Z,17.82
2018-09-22T11:53:29.431Z,17.47
2018-09-22T11:55:57.550Z,17.72
2018-09-22T11:58:25.762Z,18.09
2018-09-22T12:00:53.895Z,18.11
2018-09-22T12:03:22.119Z,18.68
2018-09-22T12:05:50.489Z,19.03
2018-09-22T12:08:18.875Z,19.01
2018-09-22T12:10:47.155Z,18.39
2018-09-22T12:13:15.353Z,18.28
2018-09-22T12:15:43.626Z,18.45
2018-09-22T12:18:11.804Z,18.51
2018-09-22T12:20:39.987Z,18.34
2018-09-22T12:23:08.191Z,17.97
2018-09-22T12:25:36.362Z,18.58
2018-09-22T12:28:04.546Z,19.10
2018-09-22T12:30:32.747Z,18.83
2018-09-22T12:33:01.035Z,19.29
2018-09-22T12:35:29.327Z,19.03
2018-09-22T12:37:57.498Z,19.00
2018-09-22T12:40:25.683Z,19.01
2018-09-22T12:42:53.901Z,19.01
2018-09-22T12:45:22.084Z,19.32
2018-09-22T12:47:50.255Z,19.49
2018-09-22T12:50:18.515Z,19.45
2018-09-22T12:52:46.744Z,19.42
2018-09-22T12:55:15.059Z,19.77
2018-09-22T12:57:43.367Z,19.34
2018-09-22T13:00:12.602Z,19.22
2018-09-22T13:02:40.975Z,19.39
2018-09-22T13:05:09.245Z,19.37
2018-09-22T13:07:37.517Z,19.40
2018-09-22T13:10:05.671Z,19.35
2018-09-22T13:12:33.816Z,19.56
2018-09-22T13:15:02.012Z,19.61
2018-09-22T13:17:30.374Z,19.45
2018-09-22T13:19:58.596Z,19.61
2018-09-22T13:22:26.919Z,19.90
2018-09-22T13:24:55.199Z,19.86
2018-09-22T13:27:23.415Z,19.88
2018-09-22T13:29:51.672Z,19.68
2018-09-22T13:32:19.847Z,19.36
2018-09-22T13:34:48.128Z,19.29
2018-09-22T13:37:16.390Z,19.30
2018-09-22T13:39:44.504Z,19.64
2018-09-22T13:42:13.818Z,19.67
2018-09-22T13:44:41.963Z,19.78
2018-09-22T13:47:10.139Z,19.86
2018-09-22T13:49:38.302Z,19.85
2018-09-22T13:52:06.499Z,19.69
2018-09-22T13:54:34.733Z,19.72
2018-09-22T13:57:03.069Z,19.64
2018-09-22T13:59:31.272Z,19.51
2018-09-22T14:01:59.480Z,19.40
2018-09-22T14:04:34.455Z,19.23
2018-09-22T14:07:02.668Z,19.20
2018-09-22T14:09:30.851Z,19.05
2018-09-22T14:11:58.977Z,18.83
2018-09-22T14:14:27.191Z,18.83
2018-09-22T14:16:55.455Z,18.82
2018-09-22T14:19:24.435Z,18.58
2018-09-22T14:21:52.619Z,18.77
2018-09-22T14:24:20.832Z,18.74
2018-09-22T14:26:48.926Z,18.82
2018-09-22T14:29:17.203Z,18.72
2018-09-22T14:31:45.392Z,18.71
2018-09-22T14:34:13.732Z,18.90
2018-09-22T14:36:42.023Z,18.96
2018-09-22T14:39:10.252Z,19.00
2018-09-22T14:41:38.435Z,18.87
2018-09-22T14:44:06.671Z,18.82
2018-09-22T14:46:34.895Z,18.47
2018-09-22T14:49:03.115Z,18.34
2018-09-22T14:51:31.324Z,18.30
2018-09-22T14:53:59.582Z,18.35
2018-09-22T14:56:27.850Z,18.33
2018-09-22T14:58:56.054Z,18.23
2018-09-22T15:01:24.270Z,18.22
2018-09-22T15:03:52.425Z,18.15
2018-09-22T15:06:20.667Z,18.04
2018-09-22T15:08:48.835Z,17.89
2018-09-22T15:11:17.048Z,18.11
2018-09-22T15:13:45.198Z,18.09
2018-09-22T15:16:13.387Z,18.09
2018-09-22T15:18:41.567Z,18.13
2018-09-22T15:21:09.795Z,18.12
2018-09-22T15:23:37.979Z,18.07
2018-09-22T15:26:06.235Z,17.95
2018-09-22T15:28:34.466Z,17.84
2018-09-22T15:31:02.676Z,17.84
2018-09-22T15:33:30.850Z,17.87
2018-09-22T15:35:59.026Z,17.68
2018-09-22T15:38:27.319Z,17.82
2018-09-22T15:40:55.462Z,17.77
2018-09-22T15:43:23.676Z,17.72
2018-09-22T15:45:51.903Z,17.61
2018-09-22T15:48:20.260Z,17.54
2018-09-22T15:50:48.379Z,17.57
2018-09-22T15:53:17.652Z,17.52
2018-09-22T15:55:45.883Z,17.35
2018-09-22T15:58:14.149Z,17.38
2018-09-22T16:00:42.499Z,17.31
2018-09-22T16:03:10.726Z,17.23
2018-09-22T16:05:38.865Z,17.23
2018-09-22T16:08:07.118Z,17.13
2018-09-22T16:10:35.314Z,17.07
2018-09-22T16:13:03.463Z,17.07
2018-09-22T16:15:31.763Z,17.12
2018-09-22T16:17:59.917Z,17.03
2018-09-22T16:20:28.070Z,17.10
2018-09-22T16:22:56.224Z,17.02
2018-09-22T16:25:24.438Z,16.93
2018-09-22T16:27:52.599Z,16.90
2018-09-22T16:30:20.823Z,16.77
2018-09-22T16:32:49.051Z,16.65
2018-09-22T16:35:17.318Z,16.52
2018-09-22T16:37:46.087Z,16.52
2018-09-22T16:40:14.402Z,16.47
2018-09-22T16:42:42.599Z,16.39
2018-09-22T16:45:10.832Z,16.36
2018-09-22T16:47:39.091Z,16.29
2018-09-22T16:50:07.446Z,16.25
2018-09-22T16:52:35.649Z,16.33
2018-09-22T16:55:03.871Z,16.43
2018-09-22T16:57:31.971Z,16.36
2018-09-22T17:00:00.193Z,16.33
2018-09-22T17:02:28.369Z,16.38
2018-09-22T17:04:56.483Z,16.37
2018-09-22T17:07:24.621Z,16.41
2018-09-22T17:09:52.767Z,16.32
2018-09-22T17:12:20.975Z,16.32
2018-09-22T17:14:49.891Z,16.29
2018-09-22T17:17:18.180Z,16.26
2018-09-22T17:19:46.369Z,16.23
2018-09-22T17:22:14.563Z,16.29
2018-09-22T17:24:42.854Z,16.22
2018-09-22T17:27:11.118Z,16.15
2018-09-22T17:29:39.732Z,16.09
2018-09-22T17:32:07.971Z,16.06
2018-09-22T17:34:36.362Z,16.08
2018-09-22T17:37:04.534Z,16.12
2018-09-22T17:39:33.384Z,16.07
2018-09-22T17:42:01.527Z,16.02
2018-09-22T17:44:30.331Z,16.16
2018-09-22T17:46:58.447Z,16.21
2018-09-22T17:49:26.787Z,16.20
2018-09-22T17:51:54.927Z,16.22
2018-09-22T17:54:23.164Z,16.13
2018-09-22T17:56:51.344Z,16.07
2018-09-22T17:59:19.567Z,16.06
2018-09-22T18:01:47.753Z,16.08
2018-09-22T18:04:16.404Z,16.07
2018-09-22T18:06:44.658Z,15.93
2018-09-22T18:09:12.862Z,16.00
2018-09-22T18:11:41.447Z,15.98
2018-09-22T18:14:09.771Z,15.85
2018-09-22T18:16:38.083Z,15.65
2018-09-22T18:19:06.516Z,15.54
2018-09-22T18:21:34.752Z,15.48
2018-09-22T18:24:03.075Z,15.39
2018-09-22T18:26:31.842Z,15.49
2018-09-22T18:29:00.104Z,15.61
2018-09-22T18:31:28.313Z,15.51
2018-09-22T18:33:56.577Z,15.63
2018-09-22T18:36:24.783Z,15.54
2018-09-22T18:38:52.982Z,15.55
2018-09-22T18:41:21.121Z,15.72
2018-09-22T18:43:49.305Z,15.79
2018-09-22T18:46:17.472Z,15.98
2018-09-22T18:48:45.659Z,15.74
2018-09-22T18:51:13.931Z,15.53
2018-09-22T18:53:42.131Z,15.46
2018-09-22T18:56:10.331Z,15.71
2018-09-22T18:58:38.477Z,15.47
2018-09-22T19:01:06.926Z,15.28
2018-09-22T19:03:35.080Z,15.14
2018-09-22T19:06:03.373Z,15.11
2018-09-22T19:08:31.440Z,15.06
2018-09-22T19:10:59.594Z,14.99
2018-09-22T19:13:36.715Z,15.10
2018-09-22T19:16:08.445Z,15.10
2018-09-22T19:18:47.226Z,15.25
2018-09-22T19:21:19.311Z,15.17
2018-09-22T19:23:53.299Z,15.26
2018-09-22T19:26:25.668Z,15.05
2018-09-22T19:28:58.259Z,15.02
2018-09-22T19:31:34.476Z,15.13
2018-09-22T19:34:06.724Z,15.01
2018-09-22T19:36:38.084Z,14.91
2018-09-22T19:41:16.268Z,14.89
2018-09-22T19:43:49.687Z,14.99
2018-09-22T19:46:20.127Z,14.82
2018-09-22T19:48:52.671Z,14.86
2018-09-22T19:51:22.855Z,14.99
2018-09-22T19:53:51.543Z,15.02
2018-09-22T19:56:19.689Z,15.09
2018-09-22T19:58:48.535Z,15.07
2018-09-22T20:01:16.655Z,14.93
2018-09-22T20:03:44.874Z,14.91
2018-09-22T20:06:13.108Z,14.87
2018-09-22T20:08:41.299Z,14.93
2018-09-22T20:11:09.575Z,15.04
2018-09-22T20:13:37.731Z,15.06
2018-09-22T20:16:06.044Z,15.02
2018-09-22T20:18:34.242Z,15.12
2018-09-22T20:21:02.419Z,15.18
2018-09-22T20:23:30.614Z,15.33
2018-09-22T20:25:58.825Z,15.31
2018-09-22T20:28:26.977Z,15.21
2018-09-22T20:30:55.175Z,15.22
2018-09-22T20:33:23.424Z,15.26
2018-09-22T20:35:51.652Z,15.20
2018-09-22T20:38:19.754Z,15.27
2018-09-22T20:40:47.868Z,15.22
2018-09-22T20:43:16.236Z,15.14
2018-09-22T20:45:44.483Z,15.15
2018-09-22T20:48:12.739Z,15.17
2018-09-22T20:50:40.927Z,15.13
2018-09-22T20:53:09.122Z,15.14
2018-09-22T20:55:37.236Z,15.18
2018-09-22T20:58:05.411Z,15.21
2018-09-22T21:00:33.603Z,15.20
2018-09-22T21:03:01.742Z,14.97
2018-09-22T21:05:29.918Z,14.96
2018-09-22T21:07:58.414Z,14.95
2018-09-22T21:10:26.662Z,15.02
2018-09-22T21:12:54.903Z,14.95
2018-09-22T21:15:23.095Z,15.00
2018-09-22T21:17:51.301Z,15.00
2018-09-22T21:20:19.985Z,14.94
2018-09-22T21:22:48.107Z,14.66
2018-09-22T21:25:16.437Z,14.71
2018-09-22T21:27:44.685Z,14.76
2018-09-22T21:30:12.850Z,14.49
2018-09-22T21:32:41.098Z,14.41
2018-09-22T21:35:09.681Z,14.49
2018-09-22T21:37:37.875Z,14.69
2018-09-22T21:40:06.342Z,14.64
2018-09-22T21:42:34.515Z,14.75
2018-09-22T21:45:05.339Z,14.83
2018-09-22T21:47:33.796Z,14.66
2018-09-22T21:50:01.994Z,14.70
2018-09-22T21:52:30.267Z,14.59
2018-09-22T21:54:58.498Z,14.65
2018-09-22T21:57:26.648Z,14.61
2018-09-22T22:02:40.135Z,14.51
2018-09-22T22:05:08.451Z,14.48
2018-09-22T22:07:36.699Z,14.41
2018-09-22T22:10:04.959Z,14.30
2018-09-22T22:12:33.281Z,14.29
2018-09-22T22:15:01.524Z,14.25
2018-09-22T22:17:29.791Z,14.16
2018-09-22T22:19:58.042Z,14.33
2018-09-22T22:22:26.247Z,14.28
2018-09-22T22:24:54.496Z,14.26
2018-09-22T22:27:22.819Z,14.29
2018-09-22T22:29:51.159Z,14.34
2018-09-22T22:32:19.399Z,14.41
2018-09-22T22:34:47.578Z,14.39
2018-09-22T22:37:15.782Z,14.53
2018-09-22T22:39:44.515Z,14.47
2018-09-22T22:42:12.764Z,14.30
2018-09-22T22:44:41.002Z,14.36
2018-09-22T22:47:09.175Z,14.27
2018-09-22T22:49:37.498Z,14.15
2018-09-22T22:52:05.666Z,14.12
2018-09-22T22:54:33.908Z,14.06
2018-09-22T22:57:02.323Z,14.05
2018-09-22T22:59:30.624Z,14.03
2018-09-22T23:01:58.823Z,13.96
2018-09-22T23:04:27.056Z,13.95
2018-09-22T23:06:55.230Z,13.92
2018-09-22T23:09:23.447Z,13.93
2018-09-22T23:11:51.695Z,14.01
2018-09-22T23:14:19.889Z,13.94
2018-09-22T23:16:48.729Z,14.01
2018-09-22T23:19:16.919Z,13.96
2018-09-22T23:21:45.611Z,14.01
2018-09-22T23:24:13.851Z,14.02
2018-09-22T23:26:42.118Z,14.06
2018-09-22T23:29:10.335Z,14.13
2018-09-22T23:31:38.508Z,14.09
2018-09-22T23:34:06.719Z,14.11
2018-09-22T23:36:35.019Z,14.14
2018-09-22T23:39:03.267Z,14.17
2018-09-22T23:41:31.443Z,14.15
2018-09-22T23:43:59.608Z,14.25
2018-09-22T23:46:27.817Z,14.20
2018-09-22T23:48:56.110Z,14.24
2018-09-22T23:51:24.410Z,14.22
2018-09-22T23:53:52.622Z,14.27
2018-09-22T23:56:20.924Z,14.21
2018-09-22T23:58:49.175Z,14.24
